Straumvik — LEYJ — position and weather

sailwx.info

Track history (hours):
 
Tides and Currents Weather Stations Pressure Air Temp Water Temp Dewpoint Dewpoint Depression Visibility Wind Speed Wind Dir Waves Ship Positions

Straumvik

Last reported at 2017-May-26 05:30 UTC. Time now 2017-May-26 05:39 UTC.
Position N 60°11' E 005°28'.

Length 50 m; draft 5 m.

Type: Ship. MMSI: 258260000.

Date/timePositionNaut miles runAvg speedWind from/ knotsBaromVisibWave heightAir tempDewpointWater temp
2017-May-26 05:30N 60°11' E 005°28'0 0.0
2017-May-26 05:00N 60°11' E 005°28'0 0.0
2017-May-26 04:30N 60°11' E 005°28'0 0.0
2017-May-26 04:00N 60°11' E 005°28'0 0.0
2017-May-26 03:30N 60°11' E 005°28'0 0.0
2017-May-26 03:00N 60°11' E 005°28'0 0.0
2017-May-26 02:27N 60°11' E 005°28'0 0.0
2017-May-26 02:00N 60°11' E 005°28'0 0.0
2017-May-26 01:30N 60°11' E 005°28'0 0.0
2017-May-26 01:00N 60°11' E 005°28'0 0.0
2017-May-26 00:30N 60°11' E 005°28'0 0.0
2017-May-26 00:00N 60°11' E 005°28'0 0.0
2017-May-25 23:30N 60°11' E 005°28'0 0.0
2017-May-25 23:00N 60°11' E 005°28'0 0.0
2017-May-25 22:30N 60°11' E 005°28'0 0.0
2017-May-25 22:00N 60°11' E 005°28'0 0.0
2017-May-25 21:30N 60°11' E 005°28'0 0.0
2017-May-25 21:00N 60°11' E 005°28'0 0.0
2017-May-25 20:30N 60°11' E 005°28'0 0.0
2017-May-25 20:00N 60°11' E 005°28'0 0.0
2017-May-25 19:30N 60°11' E 005°28'0 0.0
2017-May-25 18:57N 60°11' E 005°28'0 0.0
2017-May-25 18:30N 60°11' E 005°28'0 0.0
2017-May-25 18:00N 60°11' E 005°28'2 5.0
2017-May-25 17:30N 60°08' E 005°28'3 7.0
2017-May-25 17:00N 60°08' E 005°21'4 8.6
2017-May-25 16:30N 60°11' E 005°14'4 8.4
2017-May-25 16:00N 60°14' E 005°09'4 8.1
2017-May-25 15:30N 60°18' E 005°08'4 7.4
2017-May-25 15:00N 60°22' E 005°10'4 7.5
2017-May-25 14:30N 60°24' E 005°16'2 1.9
2017-May-25 13:30N 60°23' E 005°19'0 0.0
2017-May-25 13:00N 60°23' E 005°19'0 0.1
2017-May-25 12:30N 60°23' E 005°19'2 4.1
2017-May-25 11:59N 60°25' E 005°17'4 8.3
2017-May-25 11:30N 60°29' E 005°14'4 7.8
2017-May-25 11:00N 60°31' E 005°08'4 8.1
2017-May-25 10:30N 60°33' E 005°01'4 7.1
2017-May-25 09:59N 60°36' E 004°57'4 8.1
2017-May-25 09:30N 60°39' E 004°53'4 7.8
2017-May-25 09:00N 60°43' E 004°49'4 8.1
2017-May-25 08:30N 60°47' E 004°46'4 7.3
2017-May-25 08:00N 60°50' E 004°45'3 6.5
2017-May-25 07:30N 60°52' E 004°51'2 3.3
2017-May-25 07:00N 60°54' E 004°50'0 0.0
2017-May-25 06:30N 60°54' E 004°50'0 0.0
2017-May-25 06:00N 60°54' E 004°50'0 0.0
2017-May-25 05:30N 60°54' E 004°50'1 1.2
2017-May-25 05:00N 60°53' E 004°50'2 4.3
2017-May-25 04:30N 60°54' E 004°46'1 2.7
2017-May-25 03:59N 60°56' E 004°47'0 0.1
2017-May-25 03:29N 60°56' E 004°47'0 0.0
2017-May-25 02:59N 60°56' E 004°47'0 0.0
2017-May-25 02:29N 60°56' E 004°47'0 0.0
2017-May-25 01:59N 60°56' E 004°47'0 0.0
2017-May-25 01:29N 60°56' E 004°47'0 0.0
2017-May-25 00:59N 60°56' E 004°47'0 0.0
2017-May-25 00:29N 60°56' E 004°47'0 0.0
2017-May-24 23:59N 60°56' E 004°47'0 0.0
2017-May-24 23:29N 60°56' E 004°47'0 0.0
2017-May-24 22:59N 60°56' E 004°47'0 0.0
2017-May-24 22:29N 60°56' E 004°47'0 0.0
2017-May-24 21:59N 60°56' E 004°47'0 0.0
2017-May-24 21:29N 60°56' E 004°47'0 0.0
2017-May-24 20:56N 60°56' E 004°47'0 0.0
2017-May-24 20:29N 60°56' E 004°47'0 0.0
2017-May-24 19:59N 60°56' E 004°47'0 0.0
2017-May-24 19:29N 60°56' E 004°47'0 0.0
2017-May-24 18:59N 60°56' E 004°47'0 0.0
2017-May-24 18:26N 60°56' E 004°47'0 0.0
2017-May-24 17:56N 60°56' E 004°47'0 0.0
2017-May-24 17:29N 60°56' E 004°47'0 0.0
2017-May-24 16:59N 60°56' E 004°47'0 0.0
2017-May-24 16:29N 60°56' E 004°47'0 0.0
2017-May-24 15:59N 60°56' E 004°47'0 0.0
2017-May-24 15:29N 60°56' E 004°47'0 0.0
2017-May-24 14:56N 60°56' E 004°47'0 0.0
2017-May-24 14:29N 60°56' E 004°47'0 0.0
2017-May-24 13:29N 60°56' E 004°47'0 0.0
2017-May-24 12:59N 60°56' E 004°47'0 0.0
2017-May-24 12:29N 60°56' E 004°47'0 0.0
2017-May-24 11:59N 60°56' E 004°47'0 0.0
2017-May-24 11:29N 60°56' E 004°47'0 0.0
2017-May-24 10:59N 60°56' E 004°47'0 0.0
2017-May-24 10:29N 60°56' E 004°47'0 0.0
2017-May-24 09:59N 60°56' E 004°47'0 0.0
2017-May-24 09:29N 60°56' E 004°47'0 0.0
2017-May-24 09:00N 60°56' E 004°47'0 0.0
2017-May-24 08:29N 60°56' E 004°47'0 0.0
2017-May-24 08:00N 60°56' E 004°47'0 0.0
2017-May-24 07:29N 60°56' E 004°47'0 0.0
2017-May-24 07:00N 60°56' E 004°47'0 0.0
2017-May-24 06:30N 60°56' E 004°47'0 0.0
2017-May-24 06:00N 60°56' E 004°47'0 0.0
2017-May-24 05:30N 60°56' E 004°47'0 0.0
2017-May-24 05:00N 60°56' E 004°47'0 0.0
2017-May-24 04:30N 60°56' E 004°47'0 0.0
2017-May-24 04:00N 60°56' E 004°47'0 0.0
2017-May-24 03:30N 60°56' E 004°47'0 0.0
2017-May-24 03:00N 60°56' E 004°47'0 0.0
2017-May-24 02:30N 60°56' E 004°47'0 0.0
2017-May-24 02:00N 60°56' E 004°47'0 0.0
2017-May-24 01:30N 60°56' E 004°47'0 0.0
2017-May-24 01:00N 60°56' E 004°47'0 0.0
2017-May-24 00:30N 60°56' E 004°47'0 0.0
2017-May-24 00:00N 60°56' E 004°47'0 0.0
2017-May-23 23:29N 60°56' E 004°47'0 0.0
2017-May-23 23:00N 60°56' E 004°47'0 0.0
2017-May-23 22:30N 60°56' E 004°47'0 0.0
2017-May-23 22:00N 60°56' E 004°47'0 0.1
2017-May-23 21:30N 60°56' E 004°47'3 5.2
2017-May-23 21:00N 60°53' E 004°46'4 8.0
2017-May-23 20:30N 60°49' E 004°44'5 9.4
2017-May-23 20:00N 60°45' E 004°48'5 9.7
2017-May-23 19:30N 60°41' E 004°52'5 9.1
2017-May-23 19:00N 60°38' E 004°60'1 1.3
2017-May-23 18:30N 60°38' E 005°00'0 0.0
2017-May-23 18:00N 60°38' E 005°00'0 0.0
2017-May-23 17:30N 60°38' E 005°00'0 0.0
2017-May-23 17:00N 60°38' E 005°00'0 0.0
2017-May-23 16:29N 60°38' E 005°00'0 0.0
2017-May-23 15:59N 60°38' E 005°00'0 0.0
2017-May-23 15:30N 60°38' E 005°00'0 0.0
2017-May-23 15:00N 60°38' E 005°00'0 0.0
2017-May-23 14:00N 60°38' E 005°00'0 0.0
2017-May-23 13:30N 60°38' E 005°00'0 0.0
2017-May-23 13:00N 60°38' E 005°00'0 0.0
2017-May-23 12:30N 60°38' E 005°00'2 3.3
2017-May-23 12:00N 60°37' E 004°58'3 6.6
2017-May-23 11:30N 60°34' E 004°59'1 2.0
2017-May-23 11:00N 60°33' E 004°59'0 0.0
2017-May-23 10:30N 60°33' E 004°59'2 4.5
2017-May-23 10:00N 60°35' E 004°59'4 7.3
2017-May-23 09:30N 60°38' E 004°54'4 7.4
2017-May-23 09:00N 60°41' E 004°50'4 7.5
2017-May-23 08:30N 60°45' E 004°47'4 7.6
2017-May-23 08:00N 60°48' E 004°45'3 5.9
2017-May-23 07:30N 60°51' E 004°49'4 7.9
2017-May-23 06:59N 60°51' E 004°57'3 5.2
2017-May-23 06:30N 60°51' E 005°02'0 0.0
2017-May-23 06:00N 60°51' E 005°02'0 0.0
2017-May-23 05:30N 60°51' E 005°02'0 0.0
2017-May-23 05:00N 60°51' E 005°02'0 0.0
2017-May-23 04:30N 60°51' E 005°02'0 0.1
2017-May-23 04:00N 60°51' E 005°02'1 2.6
2017-May-23 03:29N 60°51' E 005°00'2 4.6
2017-May-23 03:00N 60°52' E 004°58'3 5.5
2017-May-23 02:30N 60°55' E 004°57'3 5.6
2017-May-23 02:00N 60°58' E 004°56'2 4.9
2017-May-23 01:30N 61°00' E 004°55'2 5.0
2017-May-23 01:00N 61°02' E 004°57'2 4.8
2017-May-23 00:30N 61°04' E 005°01'2 5.0
2017-May-23 00:00N 61°05' E 005°05'2 5.0
2017-May-22 23:30N 61°06' E 005°10'3 5.7
2017-May-22 23:00N 61°05' E 005°16'3 5.6
2017-May-22 22:30N 61°04' E 005°21'3 5.4
2017-May-22 22:00N 61°04' E 005°27'3 6.0
2017-May-22 21:30N 61°05' E 005°33'3 6.2
2017-May-22 21:00N 61°07' E 005°39'3 6.6
2017-May-22 20:30N 61°08' E 005°45'4 7.3
2017-May-22 20:00N 61°08' E 005°52'4 7.3
2017-May-22 19:30N 61°08' E 006°00'4 7.2
2017-May-22 19:00N 61°08' E 006°07'4 7.0
2017-May-22 18:30N 61°07' E 006°15'4 7.8
2017-May-22 18:00N 61°06' E 006°22'4 8.0
2017-May-22 17:30N 61°07' E 006°31'4 8.0
2017-May-22 17:00N 61°11' E 006°34'4 9.0
2017-May-22 16:30N 61°15' E 006°36'7 0.7
2017-May-22 06:26N 61°21' E 006°43'4 8.8
2017-May-22 06:00N 61°17' E 006°40'4 8.6
2017-May-22 05:29N 61°14' E 006°35'4 8.0
2017-May-22 05:00N 61°11' E 006°41'4 8.6
2017-May-22 04:30N 61°10' E 006°49'2 4.9
2017-May-22 03:59N 61°09' E 006°54'3 5.9
2017-May-22 03:30N 61°10' E 006°48'3 5.2
2017-May-22 03:00N 61°10' E 006°43'3 5.4
2017-May-22 02:30N 61°11' E 006°37'3 6.1
2017-May-22 02:00N 61°08' E 006°33'3 5.8
2017-May-22 01:30N 61°07' E 006°28'3 5.3
2017-May-22 01:00N 61°06' E 006°23'3 6.0
2017-May-22 00:29N 61°07' E 006°16'3 6.0
2017-May-22 00:00N 61°08' E 006°11'3 6.1
2017-May-21 23:30N 61°08' E 006°04'3 6.2
2017-May-21 23:00N 61°08' E 005°58'3 5.5
2017-May-21 22:30N 61°08' E 005°52'3 5.7
2017-May-21 22:00N 61°08' E 005°46'3 5.6
2017-May-21 21:30N 61°07' E 005°41'3 5.8
2017-May-21 21:00N 61°06' E 005°35'3 5.7
2017-May-21 20:29N 61°05' E 005°30'3 5.1
2017-May-21 20:00N 61°04' E 005°25'3 5.3
2017-May-21 19:30N 61°04' E 005°19'3 6.1
2017-May-21 19:00N 61°05' E 005°13'0 0.3
2017-May-21 18:28N 61°04' E 005°13'0 0.0
2017-May-21 17:58N 61°04' E 005°13'0 0.0
2017-May-21 17:28N 61°04' E 005°13'0 0.0
2017-May-21 16:58N 61°04' E 005°13'0 0.0
2017-May-21 16:28N 61°04' E 005°13'0 0.0
2017-May-21 15:58N 61°04' E 005°13'0 0.0
2017-May-21 15:22N 61°04' E 005°13'0 0.0
2017-May-21 14:58N 61°04' E 005°13'0 0.0
2017-May-21 14:28N 61°04' E 005°13'0 0.0
2017-May-21 13:28N 61°04' E 005°13'0 0.0
2017-May-21 12:58N 61°04' E 005°13'0 0.0
2017-May-21 12:28N 61°04' E 005°13'0 0.0
2017-May-21 11:58N 61°04' E 005°13'0 0.0
2017-May-21 11:28N 61°04' E 005°13'0 0.0
2017-May-21 10:58N 61°04' E 005°13'0 0.0
2017-May-21 10:28N 61°04' E 005°13'0 0.0
2017-May-21 09:52N 61°04' E 005°13'0 0.0
2017-May-21 09:28N 61°04' E 005°13'0 0.0
2017-May-21 08:58N 61°04' E 005°13'0 0.0
2017-May-21 08:28N 61°04' E 005°13'0 0.0
2017-May-21 07:58N 61°04' E 005°13'0 0.0
2017-May-21 07:28N 61°04' E 005°13'0 0.0
2017-May-21 06:55N 61°04' E 005°13'0 0.0
2017-May-21 06:28N 61°04' E 005°13'0 0.0
2017-May-21 05:58N 61°04' E 005°13'0 0.0
2017-May-21 05:28N 61°04' E 005°13'0 0.0
2017-May-21 04:58N 61°04' E 005°13'0 0.0
2017-May-21 04:25N 61°04' E 005°13'0 0.0
2017-May-21 03:58N 61°04' E 005°13'0 0.0
2017-May-21 03:28N 61°04' E 005°13'0 0.0
2017-May-21 02:55N 61°04' E 005°13'0 0.0
2017-May-21 02:28N 61°04' E 005°13'0 0.0
2017-May-21 01:55N 61°04' E 005°13'0 0.0
2017-May-21 01:28N 61°04' E 005°13'0 0.0
2017-May-21 00:58N 61°04' E 005°13'0 0.0
2017-May-21 00:28N 61°04' E 005°13'0 0.0
2017-May-20 23:55N 61°04' E 005°13'0 0.0
2017-May-20 23:28N 61°04' E 005°13'0 0.0
2017-May-20 22:55N 61°04' E 005°13'0 0.0
2017-May-20 22:28N 61°04' E 005°13'0 0.0
2017-May-20 22:00N 61°04' E 005°13'2 4.8
2017-May-20 21:30N 61°06' E 005°09'4 8.5
2017-May-20 21:00N 61°04' E 005°01'4 8.5
2017-May-20 20:30N 61°02' E 004°54'4 8.6
2017-May-20 20:00N 60°59' E 004°47'4 8.0
2017-May-20 19:30N 60°55' E 004°46'4 8.0
2017-May-20 19:00N 60°51' E 004°48'4 7.0
2017-May-20 18:30N 60°48' E 004°46'4 7.9
2017-May-20 18:00N 60°44' E 004°49'4 7.9
2017-May-20 17:30N 60°40' E 004°51'4 8.3
2017-May-20 17:00N 60°36' E 004°54'4 8.3
2017-May-20 16:30N 60°32' E 004°57'4 8.3
2017-May-20 16:00N 60°28' E 005°00'4 8.2
2017-May-20 15:30N 60°25' E 005°04'4 7.9
2017-May-20 14:59N 60°22' E 005°10'8 8.4
2017-May-20 14:00N 60°14' E 005°10'4 8.4
2017-May-20 13:30N 60°10' E 005°11'4 8.5
2017-May-20 13:00N 60°05' E 005°11'4 8.1
2017-May-20 12:30N 60°01' E 005°11'1 2.8
2017-May-20 12:00N 60°00' E 005°13'0 0.4
2017-May-20 11:30N 60°00' E 005°13'2 4.6
2017-May-20 11:00N 59°58' E 005°12'4 7.7
2017-May-20 10:30N 59°54' E 005°12'4 8.5
2017-May-20 10:00N 59°50' E 005°17'4 8.0
2017-May-20 09:30N 59°47' E 005°20'4 8.3
2017-May-20 09:00N 59°43' E 005°24'4 7.2
2017-May-20 08:30N 59°40' E 005°21'4 7.7
2017-May-20 08:00N 59°36' E 005°17'4 7.7
2017-May-20 07:29N 59°33' E 005°14'4 7.7
2017-May-20 07:00N 59°29' E 005°13'4 7.8
2017-May-20 06:30N 59°25' E 005°14'3 7.1
2017-May-20 06:00N 59°22' E 005°18'3 6.5
2017-May-20 05:30N 59°19' E 005°20'4 8.0
2017-May-20 05:00N 59°15' E 005°21'4 7.2
2017-May-20 04:30N 59°14' E 005°27'4 7.5
2017-May-20 04:00N 59°11' E 005°33'4 8.2
2017-May-20 03:30N 59°09' E 005°40'4 8.3
2017-May-20 03:00N 59°08' E 005°47'4 7.9
2017-May-20 02:30N 59°06' E 005°54'0 0.9
2017-May-20 02:00N 59°05' E 005°54'0 0.0
2017-May-20 01:30N 59°05' E 005°54'0 0.0
2017-May-20 01:00N 59°05' E 005°54'3 6.6
2017-May-20 00:30N 59°07' E 005°49'510.0
2017-May-20 00:00N 59°09' E 005°40'510.1
2017-May-19 23:30N 59°12' E 005°32'5 9.7
2017-May-19 23:00N 59°15' E 005°24'4 7.9
2017-May-19 22:30N 59°18' E 005°20'5 9.6
2017-May-19 22:00N 59°23' E 005°18'5 9.4
2017-May-19 21:30N 59°27' E 005°13'510.0
2017-May-19 21:00N 59°32' E 005°13'510.1
2017-May-19 20:30N 59°37' E 005°17'510.3
2017-May-19 20:00N 59°41' E 005°23'5 9.3
2017-May-19 19:30N 59°45' E 005°21'510.8
2017-May-19 19:00N 59°50' E 005°17'510.3
2017-May-19 18:30N 59°55' E 005°12'5 9.3
2017-May-19 18:00N 59°59' E 005°14'5 9.9
2017-May-19 17:30N 60°04' E 005°10'510.3
2017-May-19 16:59N 60°09' E 005°11'510.4
2017-May-19 16:30N 60°14' E 005°09'510.1
2017-May-19 16:00N 60°19' E 005°09'4 9.0
2017-May-19 15:30N 60°24' E 005°09'510.2
2017-May-19 15:00N 60°27' E 005°01'1110.8
2017-May-19 14:00N 60°37' E 004°53'510.6
2017-May-19 13:30N 60°42' E 004°49'510.6
2017-May-19 13:00N 60°47' E 004°45'5 9.5
2017-May-19 12:30N 60°52' E 004°46'4 9.0
2017-May-19 12:00N 60°56' E 004°46'4 8.6
2017-May-19 11:30N 61°00' E 004°50'5 9.2
2017-May-19 11:00N 61°03' E 004°57'4 9.0
2017-May-19 10:30N 61°05' E 005°06'4 8.6
2017-May-19 09:59N 61°05' E 005°15'4 8.9
2017-May-19 09:29N 61°04' E 005°23'4 8.9
2017-May-19 09:00N 61°05' E 005°32'4 8.8
2017-May-19 08:29N 61°07' E 005°41'4 8.7
2017-May-19 08:00N 61°08' E 005°49'4 8.6
2017-May-19 07:30N 61°08' E 005°58'4 8.3
2017-May-19 07:00N 61°08' E 006°07'4 8.2
2017-May-19 06:30N 61°07' E 006°15'4 8.2
2017-May-19 06:00N 61°06' E 006°23'4 8.5
2017-May-19 05:29N 61°08' E 006°32'4 8.7
2017-May-19 05:00N 61°12' E 006°34'5 9.0
2017-May-19 04:30N 61°16' E 006°38'3 0.3
2017-May-18 16:48N 61°19' E 006°41'3 8.8
2017-May-18 16:31N 61°17' E 006°39'4 8.5
2017-May-18 16:00N 61°13' E 006°35'4 8.5
2017-May-18 15:30N 61°09' E 006°33'4 8.0
2017-May-18 15:00N 61°06' E 006°26'8 8.5
2017-May-18 14:00N 61°07' E 006°09'4 8.5
2017-May-18 13:30N 61°08' E 006°00'4 8.7
2017-May-18 13:00N 61°08' E 005°51'4 8.8
2017-May-18 12:31N 61°07' E 005°43'4 8.6
2017-May-18 12:00N 61°06' E 005°34'4 8.3
2017-May-18 11:30N 61°04' E 005°26'4 8.2
2017-May-18 11:01N 61°04' E 005°18'2 4.2
2017-May-18 10:30N 61°04' E 005°13'0 0.0
2017-May-18 10:00N 61°04' E 005°13'0 0.0
2017-May-18 09:30N 61°04' E 005°13'0 0.0
2017-May-18 09:00N 61°04' E 005°13'0 0.0
2017-May-18 08:30N 61°04' E 005°13'0 0.0
2017-May-18 08:00N 61°04' E 005°13'0 0.0
2017-May-18 07:30N 61°04' E 005°13'0 0.0
2017-May-18 07:00N 61°04' E 005°13'0 0.0
2017-May-18 06:30N 61°04' E 005°13'0 0.0
2017-May-18 06:00N 61°04' E 005°13'0 0.0
2017-May-18 05:30N 61°04' E 005°13'0 0.0
2017-May-18 04:57N 61°04' E 005°13'0 0.0
2017-May-18 04:30N 61°04' E 005°13'0 0.0
2017-May-18 04:00N 61°04' E 005°13'0 0.0
2017-May-18 03:30N 61°04' E 005°13'0 0.0
2017-May-18 03:00N 61°04' E 005°13'0 0.0
2017-May-18 02:30N 61°04' E 005°13'0 0.0
2017-May-18 02:00N 61°04' E 005°13'0 0.0
2017-May-18 01:30N 61°04' E 005°13'0 0.0
2017-May-18 01:00N 61°04' E 005°13'0 0.0
2017-May-18 00:30N 61°04' E 005°13'0 0.0
2017-May-18 00:00N 61°04' E 005°13'0 0.0
2017-May-17 23:30N 61°04' E 005°13'0 0.0
2017-May-17 23:00N 61°04' E 005°13'0 0.0
2017-May-17 22:30N 61°04' E 005°13'0 0.0
2017-May-17 22:00N 61°04' E 005°13'0 0.0
2017-May-17 21:30N 61°04' E 005°13'0 0.0
2017-May-17 21:00N 61°04' E 005°13'0 0.0
2017-May-17 20:30N 61°04' E 005°13'0 0.0
2017-May-17 20:00N 61°04' E 005°13'0 0.0
2017-May-17 19:30N 61°04' E 005°13'0 0.0
2017-May-17 18:45N 61°04' E 005°13'0 0.0
2017-May-17 18:24N 61°04' E 005°13'0 0.0
2017-May-17 18:00N 61°04' E 005°13'0 0.0
2017-May-17 17:30N 61°04' E 005°13'0 0.0
2017-May-17 17:00N 61°04' E 005°13'0 0.0
2017-May-17 16:30N 61°04' E 005°13'0 0.0
2017-May-17 16:00N 61°04' E 005°13'0 0.0
2017-May-17 15:30N 61°04' E 005°13'0 0.0
2017-May-17 15:00N 61°04' E 005°13'0 0.0
2017-May-17 14:30N 61°04' E 005°13'0 0.0
2017-May-17 13:27N 61°04' E 005°13'0 0.0
2017-May-17 13:00N 61°04' E 005°13'0 0.0
2017-May-17 12:30N 61°04' E 005°13'2 3.9
2017-May-17 12:00N 61°05' E 005°17'4 8.9
2017-May-17 11:30N 61°04' E 005°26'5 9.2
2017-May-17 11:00N 61°06' E 005°35'4 8.8
2017-May-17 10:30N 61°07' E 005°44'5 9.5
2017-May-17 10:00N 61°08' E 005°53'5 9.5
2017-May-17 09:30N 61°08' E 006°03'5 9.4
2017-May-17 08:59N 61°07' E 006°13'10 8.6
2017-May-17 07:49N 61°09' E 006°34'3 9.5
2017-May-17 07:30N 61°12' E 006°34'4 9.0
2017-May-17 07:00N 61°16' E 006°38'4 0.3
2017-May-16 17:58N 61°20' E 006°42'4 8.6
2017-May-16 17:30N 61°16' E 006°38'4 8.3
2017-May-16 17:00N 61°12' E 006°35'4 7.9
2017-May-16 16:30N 61°08' E 006°33'4 7.3
2017-May-16 16:00N 61°07' E 006°27'3 6.7
2017-May-16 15:30N 61°06' E 006°20'3 6.9
2017-May-16 15:00N 61°07' E 006°13'4 7.1
2017-May-16 14:30N 61°08' E 006°06'7 6.7
2017-May-16 13:30N 61°08' E 005°52'3 6.9
2017-May-16 13:00N 61°07' E 005°45'4 7.0
2017-May-16 12:30N 61°06' E 005°38'4 7.0
2017-May-16 12:00N 61°05' E 005°31'3 6.7
2017-May-16 11:30N 61°04' E 005°24'4 7.1
2017-May-16 11:00N 61°04' E 005°17'2 3.7
2017-May-16 10:30N 61°04' E 005°13'0 0.0
2017-May-16 10:00N 61°04' E 005°13'0 0.0
2017-May-16 09:30N 61°04' E 005°13'0 0.0
2017-May-16 08:57N 61°04' E 005°13'0 0.0
2017-May-16 08:30N 61°04' E 005°13'0 0.0
2017-May-16 08:00N 61°04' E 005°13'0 0.0
2017-May-16 07:30N 61°04' E 005°13'0 0.0
2017-May-16 07:00N 61°04' E 005°13'0 0.0
2017-May-16 06:30N 61°04' E 005°13'0 0.0
2017-May-16 06:00N 61°04' E 005°13'  
Track history (hours):
 
Tides and Currents Weather Stations Pressure Air Temp Water Temp Dewpoint Dewpoint Depression Visibility Wind Speed Wind Dir Waves Ship Positions

Straumvik

Last reported at 2017-May-26 05:30 UTC. Time now 2017-May-26 05:39 UTC.
Position N 60°11' E 005°28'.

Length 50 m; draft 5 m.

Type: Ship. MMSI: 258260000.

Date/timePositionNaut miles runAvg speedWind from/ knotsBaromVisibWave heightAir tempDewpointWater temp
2017-May-26 05:30N 60°11' E 005°28'0 0.0
2017-May-26 05:00N 60°11' E 005°28'0 0.0
2017-May-26 04:30N 60°11' E 005°28'0 0.0
2017-May-26 04:00N 60°11' E 005°28'0 0.0
2017-May-26 03:30N 60°11' E 005°28'0 0.0
2017-May-26 03:00N 60°11' E 005°28'0 0.0
2017-May-26 02:27N 60°11' E 005°28'0 0.0
2017-May-26 02:00N 60°11' E 005°28'0 0.0
2017-May-26 01:30N 60°11' E 005°28'0 0.0
2017-May-26 01:00N 60°11' E 005°28'0 0.0
2017-May-26 00:30N 60°11' E 005°28'0 0.0
2017-May-26 00:00N 60°11' E 005°28'0 0.0
2017-May-25 23:30N 60°11' E 005°28'0 0.0
2017-May-25 23:00N 60°11' E 005°28'0 0.0
2017-May-25 22:30N 60°11' E 005°28'0 0.0
2017-May-25 22:00N 60°11' E 005°28'0 0.0
2017-May-25 21:30N 60°11' E 005°28'0 0.0
2017-May-25 21:00N 60°11' E 005°28'0 0.0
2017-May-25 20:30N 60°11' E 005°28'0 0.0
2017-May-25 20:00N 60°11' E 005°28'0 0.0
2017-May-25 19:30N 60°11' E 005°28'0 0.0
2017-May-25 18:57N 60°11' E 005°28'0 0.0
2017-May-25 18:30N 60°11' E 005°28'0 0.0
2017-May-25 18:00N 60°11' E 005°28'2 5.0
2017-May-25 17:30N 60°08' E 005°28'3 7.0
2017-May-25 17:00N 60°08' E 005°21'4 8.6
2017-May-25 16:30N 60°11' E 005°14'4 8.4
2017-May-25 16:00N 60°14' E 005°09'4 8.1
2017-May-25 15:30N 60°18' E 005°08'4 7.4
2017-May-25 15:00N 60°22' E 005°10'4 7.5
2017-May-25 14:30N 60°24' E 005°16'2 1.9
2017-May-25 13:30N 60°23' E 005°19'0 0.0
2017-May-25 13:00N 60°23' E 005°19'0 0.1
2017-May-25 12:30N 60°23' E 005°19'2 4.1
2017-May-25 11:59N 60°25' E 005°17'4 8.3
2017-May-25 11:30N 60°29' E 005°14'4 7.8
2017-May-25 11:00N 60°31' E 005°08'4 8.1
2017-May-25 10:30N 60°33' E 005°01'4 7.1
2017-May-25 09:59N 60°36' E 004°57'4 8.1
2017-May-25 09:30N 60°39' E 004°53'4 7.8
2017-May-25 09:00N 60°43' E 004°49'4 8.1
2017-May-25 08:30N 60°47' E 004°46'4 7.3
2017-May-25 08:00N 60°50' E 004°45'3 6.5
2017-May-25 07:30N 60°52' E 004°51'2 3.3
2017-May-25 07:00N 60°54' E 004°50'0 0.0
2017-May-25 06:30N 60°54' E 004°50'0 0.0
2017-May-25 06:00N 60°54' E 004°50'0 0.0
2017-May-25 05:30N 60°54' E 004°50'1 1.2
2017-May-25 05:00N 60°53' E 004°50'2 4.3
2017-May-25 04:30N 60°54' E 004°46'1 2.7
2017-May-25 03:59N 60°56' E 004°47'0 0.1
2017-May-25 03:29N 60°56' E 004°47'0 0.0
2017-May-25 02:59N 60°56' E 004°47'0 0.0
2017-May-25 02:29N 60°56' E 004°47'0 0.0
2017-May-25 01:59N 60°56' E 004°47'0 0.0
2017-May-25 01:29N 60°56' E 004°47'0 0.0
2017-May-25 00:59N 60°56' E 004°47'0 0.0
2017-May-25 00:29N 60°56' E 004°47'0 0.0
2017-May-24 23:59N 60°56' E 004°47'0 0.0
2017-May-24 23:29N 60°56' E 004°47'0 0.0
2017-May-24 22:59N 60°56' E 004°47'0 0.0
2017-May-24 22:29N 60°56' E 004°47'0 0.0
2017-May-24 21:59N 60°56' E 004°47'0 0.0
2017-May-24 21:29N 60°56' E 004°47'0 0.0
2017-May-24 20:56N 60°56' E 004°47'0 0.0
2017-May-24 20:29N 60°56' E 004°47'0 0.0
2017-May-24 19:59N 60°56' E 004°47'0 0.0
2017-May-24 19:29N 60°56' E 004°47'0 0.0
2017-May-24 18:59N 60°56' E 004°47'0 0.0
2017-May-24 18:26N 60°56' E 004°47'0 0.0
2017-May-24 17:56N 60°56' E 004°47'0 0.0
2017-May-24 17:29N 60°56' E 004°47'0 0.0
2017-May-24 16:59N 60°56' E 004°47'0 0.0
2017-May-24 16:29N 60°56' E 004°47'0 0.0
2017-May-24 15:59N 60°56' E 004°47'0 0.0
2017-May-24 15:29N 60°56' E 004°47'0 0.0
2017-May-24 14:56N 60°56' E 004°47'0 0.0
2017-May-24 14:29N 60°56' E 004°47'0 0.0
2017-May-24 13:29N 60°56' E 004°47'0 0.0
2017-May-24 12:59N 60°56' E 004°47'0 0.0
2017-May-24 12:29N 60°56' E 004°47'0 0.0
2017-May-24 11:59N 60°56' E 004°47'0 0.0
2017-May-24 11:29N 60°56' E 004°47'0 0.0
2017-May-24 10:59N 60°56' E 004°47'0 0.0
2017-May-24 10:29N 60°56' E 004°47'0 0.0
2017-May-24 09:59N 60°56' E 004°47'0 0.0
2017-May-24 09:29N 60°56' E 004°47'0 0.0
2017-May-24 09:00N 60°56' E 004°47'0 0.0
2017-May-24 08:29N 60°56' E 004°47'0 0.0
2017-May-24 08:00N 60°56' E 004°47'0 0.0
2017-May-24 07:29N 60°56' E 004°47'0 0.0
2017-May-24 07:00N 60°56' E 004°47'0 0.0
2017-May-24 06:30N 60°56' E 004°47'0 0.0
2017-May-24 06:00N 60°56' E 004°47'0 0.0
2017-May-24 05:30N 60°56' E 004°47'0 0.0
2017-May-24 05:00N 60°56' E 004°47'0 0.0
2017-May-24 04:30N 60°56' E 004°47'0 0.0
2017-May-24 04:00N 60°56' E 004°47'0 0.0
2017-May-24 03:30N 60°56' E 004°47'0 0.0
2017-May-24 03:00N 60°56' E 004°47'0 0.0
2017-May-24 02:30N 60°56' E 004°47'0 0.0
2017-May-24 02:00N 60°56' E 004°47'0 0.0
2017-May-24 01:30N 60°56' E 004°47'0 0.0
2017-May-24 01:00N 60°56' E 004°47'0 0.0
2017-May-24 00:30N 60°56' E 004°47'0 0.0
2017-May-24 00:00N 60°56' E 004°47'0 0.0
2017-May-23 23:29N 60°56' E 004°47'0 0.0
2017-May-23 23:00N 60°56' E 004°47'0 0.0
2017-May-23 22:30N 60°56' E 004°47'0 0.0
2017-May-23 22:00N 60°56' E 004°47'0 0.1
2017-May-23 21:30N 60°56' E 004°47'3 5.2
2017-May-23 21:00N 60°53' E 004°46'4 8.0
2017-May-23 20:30N 60°49' E 004°44'5 9.4
2017-May-23 20:00N 60°45' E 004°48'5 9.7
2017-May-23 19:30N 60°41' E 004°52'5 9.1
2017-May-23 19:00N 60°38' E 004°60'1 1.3
2017-May-23 18:30N 60°38' E 005°00'0 0.0
2017-May-23 18:00N 60°38' E 005°00'0 0.0
2017-May-23 17:30N 60°38' E 005°00'0 0.0
2017-May-23 17:00N 60°38' E 005°00'0 0.0
2017-May-23 16:29N 60°38' E 005°00'0 0.0
2017-May-23 15:59N 60°38' E 005°00'0 0.0
2017-May-23 15:30N 60°38' E 005°00'0 0.0
2017-May-23 15:00N 60°38' E 005°00'0 0.0
2017-May-23 14:00N 60°38' E 005°00'0 0.0
2017-May-23 13:30N 60°38' E 005°00'0 0.0
2017-May-23 13:00N 60°38' E 005°00'0 0.0
2017-May-23 12:30N 60°38' E 005°00'2 3.3
2017-May-23 12:00N 60°37' E 004°58'3 6.6
2017-May-23 11:30N 60°34' E 004°59'1 2.0
2017-May-23 11:00N 60°33' E 004°59'0 0.0
2017-May-23 10:30N 60°33' E 004°59'2 4.5
2017-May-23 10:00N 60°35' E 004°59'4 7.3
2017-May-23 09:30N 60°38' E 004°54'4 7.4
2017-May-23 09:00N 60°41' E 004°50'4 7.5
2017-May-23 08:30N 60°45' E 004°47'4 7.6
2017-May-23 08:00N 60°48' E 004°45'3 5.9
2017-May-23 07:30N 60°51' E 004°49'4 7.9
2017-May-23 06:59N 60°51' E 004°57'3 5.2
2017-May-23 06:30N 60°51' E 005°02'0 0.0
2017-May-23 06:00N 60°51' E 005°02'0 0.0
2017-May-23 05:30N 60°51' E 005°02'0 0.0
2017-May-23 05:00N 60°51' E 005°02'0 0.0
2017-May-23 04:30N 60°51' E 005°02'0 0.1
2017-May-23 04:00N 60°51' E 005°02'1 2.6
2017-May-23 03:29N 60°51' E 005°00'2 4.6
2017-May-23 03:00N 60°52' E 004°58'3 5.5
2017-May-23 02:30N 60°55' E 004°57'3 5.6
2017-May-23 02:00N 60°58' E 004°56'2 4.9
2017-May-23 01:30N 61°00' E 004°55'2 5.0
2017-May-23 01:00N 61°02' E 004°57'2 4.8
2017-May-23 00:30N 61°04' E 005°01'2 5.0
2017-May-23 00:00N 61°05' E 005°05'2 5.0
2017-May-22 23:30N 61°06' E 005°10'3 5.7
2017-May-22 23:00N 61°05' E 005°16'3 5.6
2017-May-22 22:30N 61°04' E 005°21'3 5.4
2017-May-22 22:00N 61°04' E 005°27'3 6.0
2017-May-22 21:30N 61°05' E 005°33'3 6.2
2017-May-22 21:00N 61°07' E 005°39'3 6.6
2017-May-22 20:30N 61°08' E 005°45'4 7.3
2017-May-22 20:00N 61°08' E 005°52'4 7.3
2017-May-22 19:30N 61°08' E 006°00'4 7.2
2017-May-22 19:00N 61°08' E 006°07'4 7.0
2017-May-22 18:30N 61°07' E 006°15'4 7.8
2017-May-22 18:00N 61°06' E 006°22'4 8.0
2017-May-22 17:30N 61°07' E 006°31'4 8.0
2017-May-22 17:00N 61°11' E 006°34'4 9.0
2017-May-22 16:30N 61°15' E 006°36'7 0.7
2017-May-22 06:26N 61°21' E 006°43'4 8.8
2017-May-22 06:00N 61°17' E 006°40'4 8.6
2017-May-22 05:29N 61°14' E 006°35'4 8.0
2017-May-22 05:00N 61°11' E 006°41'4 8.6
2017-May-22 04:30N 61°10' E 006°49'2 4.9
2017-May-22 03:59N 61°09' E 006°54'3 5.9
2017-May-22 03:30N 61°10' E 006°48'3 5.2
2017-May-22 03:00N 61°10' E 006°43'3 5.4
2017-May-22 02:30N 61°11' E 006°37'3 6.1
2017-May-22 02:00N 61°08' E 006°33'3 5.8
2017-May-22 01:30N 61°07' E 006°28'3 5.3
2017-May-22 01:00N 61°06' E 006°23'3 6.0
2017-May-22 00:29N 61°07' E 006°16'3 6.0
2017-May-22 00:00N 61°08' E 006°11'3 6.1
2017-May-21 23:30N 61°08' E 006°04'3 6.2
2017-May-21 23:00N 61°08' E 005°58'3 5.5
2017-May-21 22:30N 61°08' E 005°52'3 5.7
2017-May-21 22:00N 61°08' E 005°46'3 5.6
2017-May-21 21:30N 61°07' E 005°41'3 5.8
2017-May-21 21:00N 61°06' E 005°35'3 5.7
2017-May-21 20:29N 61°05' E 005°30'3 5.1
2017-May-21 20:00N 61°04' E 005°25'3 5.3
2017-May-21 19:30N 61°04' E 005°19'3 6.1
2017-May-21 19:00N 61°05' E 005°13'0 0.3
2017-May-21 18:28N 61°04' E 005°13'0 0.0
2017-May-21 17:58N 61°04' E 005°13'0 0.0
2017-May-21 17:28N 61°04' E 005°13'0 0.0
2017-May-21 16:58N 61°04' E 005°13'0 0.0
2017-May-21 16:28N 61°04' E 005°13'0 0.0
2017-May-21 15:58N 61°04' E 005°13'0 0.0
2017-May-21 15:22N 61°04' E 005°13'0 0.0
2017-May-21 14:58N 61°04' E 005°13'0 0.0
2017-May-21 14:28N 61°04' E 005°13'0 0.0
2017-May-21 13:28N 61°04' E 005°13'0 0.0
2017-May-21 12:58N 61°04' E 005°13'0 0.0
2017-May-21 12:28N 61°04' E 005°13'0 0.0
2017-May-21 11:58N 61°04' E 005°13'0 0.0
2017-May-21 11:28N 61°04' E 005°13'0 0.0
2017-May-21 10:58N 61°04' E 005°13'0 0.0
2017-May-21 10:28N 61°04' E 005°13'0 0.0
2017-May-21 09:52N 61°04' E 005°13'0 0.0
2017-May-21 09:28N 61°04' E 005°13'0 0.0
2017-May-21 08:58N 61°04' E 005°13'0 0.0
2017-May-21 08:28N 61°04' E 005°13'0 0.0
2017-May-21 07:58N 61°04' E 005°13'0 0.0
2017-May-21 07:28N 61°04' E 005°13'0 0.0
2017-May-21 06:55N 61°04' E 005°13'0 0.0
2017-May-21 06:28N 61°04' E 005°13'0 0.0
2017-May-21 05:58N 61°04' E 005°13'0 0.0
2017-May-21 05:28N 61°04' E 005°13'0 0.0
2017-May-21 04:58N 61°04' E 005°13'0 0.0
2017-May-21 04:25N 61°04' E 005°13'0 0.0
2017-May-21 03:58N 61°04' E 005°13'0 0.0
2017-May-21 03:28N 61°04' E 005°13'0 0.0
2017-May-21 02:55N 61°04' E 005°13'0 0.0
2017-May-21 02:28N 61°04' E 005°13'0 0.0
2017-May-21 01:55N 61°04' E 005°13'0 0.0
2017-May-21 01:28N 61°04' E 005°13'0 0.0
2017-May-21 00:58N 61°04' E 005°13'0 0.0
2017-May-21 00:28N 61°04' E 005°13'0 0.0
2017-May-20 23:55N 61°04' E 005°13'0 0.0
2017-May-20 23:28N 61°04' E 005°13'0 0.0
2017-May-20 22:55N 61°04' E 005°13'0 0.0
2017-May-20 22:28N 61°04' E 005°13'0 0.0
2017-May-20 22:00N 61°04' E 005°13'2 4.8
2017-May-20 21:30N 61°06' E 005°09'4 8.5
2017-May-20 21:00N 61°04' E 005°01'4 8.5
2017-May-20 20:30N 61°02' E 004°54'4 8.6
2017-May-20 20:00N 60°59' E 004°47'4 8.0
2017-May-20 19:30N 60°55' E 004°46'4 8.0
2017-May-20 19:00N 60°51' E 004°48'4 7.0
2017-May-20 18:30N 60°48' E 004°46'4 7.9
2017-May-20 18:00N 60°44' E 004°49'4 7.9
2017-May-20 17:30N 60°40' E 004°51'4 8.3
2017-May-20 17:00N 60°36' E 004°54'4 8.3
2017-May-20 16:30N 60°32' E 004°57'4 8.3
2017-May-20 16:00N 60°28' E 005°00'4 8.2
2017-May-20 15:30N 60°25' E 005°04'4 7.9
2017-May-20 14:59N 60°22' E 005°10'8 8.4
2017-May-20 14:00N 60°14' E 005°10'4 8.4
2017-May-20 13:30N 60°10' E 005°11'4 8.5
2017-May-20 13:00N 60°05' E 005°11'4 8.1
2017-May-20 12:30N 60°01' E 005°11'1 2.8
2017-May-20 12:00N 60°00' E 005°13'0 0.4
2017-May-20 11:30N 60°00' E 005°13'2 4.6
2017-May-20 11:00N 59°58' E 005°12'4 7.7
2017-May-20 10:30N 59°54' E 005°12'4 8.5
2017-May-20 10:00N 59°50' E 005°17'4 8.0
2017-May-20 09:30N 59°47' E 005°20'4 8.3
2017-May-20 09:00N 59°43' E 005°24'4 7.2
2017-May-20 08:30N 59°40' E 005°21'4 7.7
2017-May-20 08:00N 59°36' E 005°17'4 7.7
2017-May-20 07:29N 59°33' E 005°14'4 7.7
2017-May-20 07:00N 59°29' E 005°13'4 7.8
2017-May-20 06:30N 59°25' E 005°14'3 7.1
2017-May-20 06:00N 59°22' E 005°18'3 6.5
2017-May-20 05:30N 59°19' E 005°20'4 8.0
2017-May-20 05:00N 59°15' E 005°21'4 7.2
2017-May-20 04:30N 59°14' E 005°27'4 7.5
2017-May-20 04:00N 59°11' E 005°33'4 8.2
2017-May-20 03:30N 59°09' E 005°40'4 8.3
2017-May-20 03:00N 59°08' E 005°47'4 7.9
2017-May-20 02:30N 59°06' E 005°54'0 0.9
2017-May-20 02:00N 59°05' E 005°54'0 0.0
2017-May-20 01:30N 59°05' E 005°54'0 0.0
2017-May-20 01:00N 59°05' E 005°54'3 6.6
2017-May-20 00:30N 59°07' E 005°49'510.0
2017-May-20 00:00N 59°09' E 005°40'510.1
2017-May-19 23:30N 59°12' E 005°32'5 9.7
2017-May-19 23:00N 59°15' E 005°24'4 7.9
2017-May-19 22:30N 59°18' E 005°20'5 9.6
2017-May-19 22:00N 59°23' E 005°18'5 9.4
2017-May-19 21:30N 59°27' E 005°13'510.0
2017-May-19 21:00N 59°32' E 005°13'510.1
2017-May-19 20:30N 59°37' E 005°17'510.3
2017-May-19 20:00N 59°41' E 005°23'5 9.3
2017-May-19 19:30N 59°45' E 005°21'510.8
2017-May-19 19:00N 59°50' E 005°17'510.3
2017-May-19 18:30N 59°55' E 005°12'5 9.3
2017-May-19 18:00N 59°59' E 005°14'5 9.9
2017-May-19 17:30N 60°04' E 005°10'510.3
2017-May-19 16:59N 60°09' E 005°11'510.4
2017-May-19 16:30N 60°14' E 005°09'510.1
2017-May-19 16:00N 60°19' E 005°09'4 9.0
2017-May-19 15:30N 60°24' E 005°09'510.2
2017-May-19 15:00N 60°27' E 005°01'1110.8
2017-May-19 14:00N 60°37' E 004°53'510.6
2017-May-19 13:30N 60°42' E 004°49'510.6
2017-May-19 13:00N 60°47' E 004°45'5 9.5
2017-May-19 12:30N 60°52' E 004°46'4 9.0
2017-May-19 12:00N 60°56' E 004°46'4 8.6
2017-May-19 11:30N 61°00' E 004°50'5 9.2
2017-May-19 11:00N 61°03' E 004°57'4 9.0
2017-May-19 10:30N 61°05' E 005°06'4 8.6
2017-May-19 09:59N 61°05' E 005°15'4 8.9
2017-May-19 09:29N 61°04' E 005°23'4 8.9
2017-May-19 09:00N 61°05' E 005°32'4 8.8
2017-May-19 08:29N 61°07' E 005°41'4 8.7
2017-May-19 08:00N 61°08' E 005°49'4 8.6
2017-May-19 07:30N 61°08' E 005°58'4 8.3
2017-May-19 07:00N 61°08' E 006°07'4 8.2
2017-May-19 06:30N 61°07' E 006°15'4 8.2
2017-May-19 06:00N 61°06' E 006°23'4 8.5
2017-May-19 05:29N 61°08' E 006°32'4 8.7
2017-May-19 05:00N 61°12' E 006°34'5 9.0
2017-May-19 04:30N 61°16' E 006°38'3 0.3
2017-May-18 16:48N 61°19' E 006°41'3 8.8
2017-May-18 16:31N 61°17' E 006°39'4 8.5
2017-May-18 16:00N 61°13' E 006°35'4 8.5
2017-May-18 15:30N 61°09' E 006°33'4 8.0
2017-May-18 15:00N 61°06' E 006°26'8 8.5
2017-May-18 14:00N 61°07' E 006°09'4 8.5
2017-May-18 13:30N 61°08' E 006°00'4 8.7
2017-May-18 13:00N 61°08' E 005°51'4 8.8
2017-May-18 12:31N 61°07' E 005°43'4 8.6
2017-May-18 12:00N 61°06' E 005°34'4 8.3
2017-May-18 11:30N 61°04' E 005°26'4 8.2
2017-May-18 11:01N 61°04' E 005°18'2 4.2
2017-May-18 10:30N 61°04' E 005°13'0 0.0
2017-May-18 10:00N 61°04' E 005°13'0 0.0
2017-May-18 09:30N 61°04' E 005°13'0 0.0
2017-May-18 09:00N 61°04' E 005°13'0 0.0
2017-May-18 08:30N 61°04' E 005°13'0 0.0
2017-May-18 08:00N 61°04' E 005°13'0 0.0
2017-May-18 07:30N 61°04' E 005°13'0 0.0
2017-May-18 07:00N 61°04' E 005°13'0 0.0
2017-May-18 06:30N 61°04' E 005°13'0 0.0
2017-May-18 06:00N 61°04' E 005°13'0 0.0
2017-May-18 05:30N 61°04' E 005°13'0 0.0
2017-May-18 04:57N 61°04' E 005°13'0 0.0
2017-May-18 04:30N 61°04' E 005°13'0 0.0
2017-May-18 04:00N 61°04' E 005°13'0 0.0
2017-May-18 03:30N 61°04' E 005°13'0 0.0
2017-May-18 03:00N 61°04' E 005°13'0 0.0
2017-May-18 02:30N 61°04' E 005°13'0 0.0
2017-May-18 02:00N 61°04' E 005°13'0 0.0
2017-May-18 01:30N 61°04' E 005°13'0 0.0
2017-May-18 01:00N 61°04' E 005°13'0 0.0
2017-May-18 00:30N 61°04' E 005°13'0 0.0
2017-May-18 00:00N 61°04' E 005°13'0 0.0
2017-May-17 23:30N 61°04' E 005°13'0 0.0
2017-May-17 23:00N 61°04' E 005°13'0 0.0
2017-May-17 22:30N 61°04' E 005°13'0 0.0
2017-May-17 22:00N 61°04' E 005°13'0 0.0
2017-May-17 21:30N 61°04' E 005°13'0 0.0
2017-May-17 21:00N 61°04' E 005°13'0 0.0
2017-May-17 20:30N 61°04' E 005°13'0 0.0
2017-May-17 20:00N 61°04' E 005°13'0 0.0
2017-May-17 19:30N 61°04' E 005°13'0 0.0
2017-May-17 18:45N 61°04' E 005°13'0 0.0
2017-May-17 18:24N 61°04' E 005°13'0 0.0
2017-May-17 18:00N 61°04' E 005°13'0 0.0
2017-May-17 17:30N 61°04' E 005°13'0 0.0
2017-May-17 17:00N 61°04' E 005°13'0 0.0
2017-May-17 16:30N 61°04' E 005°13'0 0.0
2017-May-17 16:00N 61°04' E 005°13'0 0.0
2017-May-17 15:30N 61°04' E 005°13'0 0.0
2017-May-17 15:00N 61°04' E 005°13'0 0.0
2017-May-17 14:30N 61°04' E 005°13'0 0.0
2017-May-17 13:27N 61°04' E 005°13'0 0.0
2017-May-17 13:00N 61°04' E 005°13'0 0.0
2017-May-17 12:30N 61°04' E 005°13'2 3.9
2017-May-17 12:00N 61°05' E 005°17'4 8.9
2017-May-17 11:30N 61°04' E 005°26'5 9.2
2017-May-17 11:00N 61°06' E 005°35'4 8.8
2017-May-17 10:30N 61°07' E 005°44'5 9.5
2017-May-17 10:00N 61°08' E 005°53'5 9.5
2017-May-17 09:30N 61°08' E 006°03'5 9.4
2017-May-17 08:59N 61°07' E 006°13'10 8.6
2017-May-17 07:49N 61°09' E 006°34'3 9.5
2017-May-17 07:30N 61°12' E 006°34'4 9.0
2017-May-17 07:00N 61°16' E 006°38'4 0.3
2017-May-16 17:58N 61°20' E 006°42'4 8.6
2017-May-16 17:30N 61°16' E 006°38'4 8.3
2017-May-16 17:00N 61°12' E 006°35'4 7.9
2017-May-16 16:30N 61°08' E 006°33'4 7.3
2017-May-16 16:00N 61°07' E 006°27'3 6.7
2017-May-16 15:30N 61°06' E 006°20'3 6.9
2017-May-16 15:00N 61°07' E 006°13'4 7.1
2017-May-16 14:30N 61°08' E 006°06'7 6.7
2017-May-16 13:30N 61°08' E 005°52'3 6.9
2017-May-16 13:00N 61°07' E 005°45'4 7.0
2017-May-16 12:30N 61°06' E 005°38'4 7.0
2017-May-16 12:00N 61°05' E 005°31'3 6.7
2017-May-16 11:30N 61°04' E 005°24'4 7.1
2017-May-16 11:00N 61°04' E 005°17'2 3.7
2017-May-16 10:30N 61°04' E 005°13'0 0.0
2017-May-16 10:00N 61°04' E 005°13'0 0.0
2017-May-16 09:30N 61°04' E 005°13'0 0.0
2017-May-16 08:57N 61°04' E 005°13'0 0.0
2017-May-16 08:30N 61°04' E 005°13'0 0.0
2017-May-16 08:00N 61°04' E 005°13'0 0.0
2017-May-16 07:30N 61°04' E 005°13'0 0.0
2017-May-16 07:00N 61°04' E 005°13'0 0.0
2017-May-16 06:30N 61°04' E 005°13'0 0.0
2017-May-16 06:00N 61°04' E 005°13'  

Dump ship's entire track history